메인 페이지
METAR-TAF:

METAR-TAF

공항 :

포트워스, 텍사스, 미국

위도: 32-58-24N, 경도: 097-19-05W, 고도: 220m

현재 날씨관측

예보는 1 시간 0분 전, 05:53시(UTC)에 발표되었습니다.
북서15kt, 순간 최대 풍속 20kt
온도 9°C
습도 66%
기압 1020 hPa
시정: 16.1km
고도 2900ft 상공 흐림

METAR: KAFW 180553Z 31015G20KT 10SM OVC029 09/03 A3013 RMK AO2 SLP201 T00890033 10172 20089 402110056 53023 $

시각: 00:53 (06:53 UTC)

예보

예보는 1 시간 29분 전, 05:24시(UTC)에 발표되었습니다.
예보 대상 시간: 18일 06시부터 19일 06시까지 (UTC)
북북서14kt
시정: 10km
고도 2000ft 상공 구름 보통
고도 5000ft 상공 흐림
시계 내 소나기
18일 0800시부터 (UTC)
북북서16kt
시정: 10km
고도 2500ft 상공 흐림
18일 1700시부터 (UTC)
북북서14kt
시정: 10km
고도 5000ft 상공 구름 많음
18일 2000시부터 (UTC)
북북서12kt
시정: 10km
고도 25000ft 상공 흐림

TAF: KAFW 180524Z 1806/1906 33014KT P6SM VCSH SCT020 OVC050 FM180800 33016KT P6SM OVC025 FM181700 34014KT P6SM BKN050 FM182000 33012KT P6SM OVC250

4,000개 이상의 공항 관측 자료 및 예보 (METAR 및 TAF 보고).

지도상에서 검색 가능한 기상관측소가 노란 점과 빨간 점으로 표시되어 있습니다.

기상관측소 명을 보려면 표시 위로 마우스를 이동하세요.

날씨 관측과 예보를 보려면 클릭하세요.

지도 변경 : 확대하려면 엑스 표시가 있는 녹색 버튼, 축소하려면 빼기 표시가 있는 녹색 버튼, 다음 페이지의 지도를 보려면 녹색 화살표를 클릭하세요.


METAR-TAF: